South Bend Regional Airport
KSBN : now visible

Airfield :











YOU CAN JOIN US ON...

 
LOGIN :

Register | Disclaimer

   EN    FR    IT 

 









Legend :    VFR   Marginal VFR   IFR   Intensive IFR   Very Intensive IFR
Visi :
Ceiling :
>= 8 km
>= 3000ft
5 to 8 km
1000 to 3000 ft
1500m to 5 km
500 to 1000 ft
800 to 1500m
200 to 500 ft
< 800m
< 200 ft
Symbols :   Thunderstorms  Fog  Heavy snow  Heavy precipitations  Wind > 20 kt






- Airport Elevation : 799 ft
- IATA code : SBN


KSBN - South Bend Regional

CURRENT METAR :
  • 281854Z 20007KT 10SM -RA FEW060 SCT070 OVC090 21/20 A2987 RMK AO2 SLP110 P0003 T02110200

EXPIRED METARs :
  • 281828Z 21009KT 3SM -RA BR FEW010 BKN045 OVC055 21/19 A2988 RMK AO2 P0002 T02110194
  • 281815Z 24010KT 8SM -RA SCT010 BKN016 OVC048 22/20 A2988 RMK AO2 P0000 T02170200
  • 281754Z 23010KT 10SM -RA OVC048 22/20 A2988 RMK AO2 SLP114 P0002 60015 T02170200 10222 20206 58007
  • 281654Z 21008KT 8SM -RA FEW012 OVC040 21/20 A2989 RMK AO2 RAE11B27 SLP118 P0003 T02110200

TAF KSBN
Valid from the 28 at 18:00 until the 29 at 18:00 UTC


281733Z 2818/2918 21009KT P6SM BKN050
TEMPO 2818/2819 5SM -RA BR BKN015
FM290400 24006KT 5SM -SHRA BR OVC015
FM291400 30009KT P6SM BKN090
KZAU FIR / North America



MET'MAP, your aeronautical weather chart ! - Copyright ORBIFLY December 2007 - Disclaimer

ORBIFLY MET'MAP TEAM :

Programming & Development : Alexandra Zaïnal
Concept & original design : Baudouin d'Aumeries
Assistance for programming : Marc-Olivier Méhu
Technical & hardware support : Manuel Goepfert

Contact : metmap@orbifly.com




SOURCES & CREDITS :

   NOAA       Earth
Advisory